Time;durP1;ratioP1;P1;durP2;ratioP2;P2;SDS_P1;SDS_P2;PMS_P1;PMS_P2;Temp;Humidity;BMP_temperature;BMP_pressure;BME280_temperature;BME280_humidity;BME280_pressure;Samples;Min_cycle;Max_cycle;Signal;HPM_P1;HPM_P2
2024/01/13 00:00:58;;;;;;;32.65;14.60;;;;;;;-0.36;59.18;100009.22;4924041;29;20023;-96
2024/01/13 00:03:24;;;;;;;44.38;16.33;;;;;;;-0.35;59.57;100005.59;4924256;29;20027;-96
2024/01/13 00:05:50;;;;;;;36.45;15.65;;;;;;;-0.36;59.49;100003.13;4925700;29;20024;-96
2024/01/13 00:08:17;;;;;;;37.70;16.13;;;;;;;-0.52;61.48;100014.69;4924014;29;20047;-96
2024/01/13 00:10:43;;;;;;;44.10;19.30;;;;;;;-0.43;61.24;100005.69;4926059;29;20474;-96
2024/01/13 00:13:10;;;;;;;52.92;18.38;;;;;;;-0.42;60.12;99996.72;4927528;29;20035;-96
2024/01/13 00:15:36;;;;;;;61.25;21.83;;;;;;;-0.39;60.55;99992.88;4924448;29;20032;-96
2024/01/13 00:18:01;;;;;;;52.05;20.08;;;;;;;-0.31;59.94;100004.22;4924797;29;20020;-96
2024/01/13 00:20:27;;;;;;;39.13;16.83;;;;;;;-0.50;60.29;99984.44;4924371;29;20024;-96
2024/01/13 00:22:53;;;;;;;33.60;16.30;;;;;;;-0.35;59.75;99991.53;4924671;29;20024;-96
2024/01/13 00:25:19;;;;;;;49.90;18.83;;;;;;;-0.31;59.48;100008.69;4924139;29;20062;-95
2024/01/13 00:27:45;;;;;;;50.20;20.58;;;;;;;-0.27;59.93;100016.09;4904251;29;20040;-96
2024/01/13 00:30:11;;;;;;;38.80;17.73;;;;;;;-0.37;60.35;100007.59;4933734;29;20040;-96
2024/01/13 00:32:36;;;;;;;32.92;14.90;;;;;;;-0.40;60.09;99994.72;4902314;29;20032;-96
2024/01/13 00:35:02;;;;;;;32.78;15.07;;;;;;;-0.41;60.34;100004.50;4918538;29;20032;-96
2024/01/13 00:37:28;;;;;;;34.60;16.17;;;;;;;-0.41;60.46;99995.75;4906641;29;20095;-96
2024/01/13 00:39:55;;;;;;;31.25;16.10;;;;;;;-0.42;59.98;100000.19;4936968;29;20062;-96
2024/01/13 00:42:21;;;;;;;29.50;15.48;;;;;;;-0.34;60.34;100007.22;4906536;29;20111;-96
2024/01/13 00:44:47;;;;;;;31.48;15.27;;;;;;;-0.24;59.98;100031.59;4924621;29;20067;-96
2024/01/13 00:47:13;;;;;;;31.80;15.60;;;;;;;-0.43;60.26;100016.25;4926095;29;20486;-96
2024/01/13 00:49:39;;;;;;;28.83;14.27;;;;;;;-0.34;60.18;100033.69;4926180;29;20044;-96
2024/01/13 00:52:06;;;;;;;29.58;15.18;;;;;;;-0.58;60.50;100004.81;4924951;29;20079;-96
2024/01/13 00:54:32;;;;;;;31.55;14.55;;;;;;;-0.63;60.76;100015.94;4909746;29;20056;-96
2024/01/13 00:56:57;;;;;;;31.77;14.57;;;;;;;-0.61;60.55;100006.00;4924818;29;20043;-96
2024/01/13 00:59:23;;;;;;;28.90;14.35;;;;;;;-0.59;60.63;100019.88;4923264;29;20478;-96
2024/01/13 01:01:49;;;;;;;28.38;14.80;;;;;;;-0.61;60.12;100009.47;4925336;29;20028;-96
2024/01/13 01:04:14;;;;;;;29.48;13.32;;;;;;;-0.68;60.08;100013.84;4924904;29;20059;-96
2024/01/13 01:06:40;;;;;;;30.92;14.20;;;;;;;-0.70;61.34;100007.91;4907779;29;20028;-96
2024/01/13 01:09:09;;;;;;;30.02;14.65;;;;;;;-0.65;60.24;100018.75;4909760;29;20111;-96
2024/01/13 01:11:35;;;;;;;31.45;14.13;;;;;;;-0.56;59.37;100016.88;4908691;29;20036;-96
2024/01/13 01:14:01;;;;;;;26.33;13.02;;;;;;;-0.58;59.13;99997.72;4925686;29;20043;-96
2024/01/13 01:16:27;;;;;;;27.33;12.68;;;;;;;-0.56;58.32;99986.94;4924937;29;20087;-96
2024/01/13 01:18:53;;;;;;;30.05;13.38;;;;;;;-0.39;58.21;100000.81;4926242;29;20012;-96
2024/01/13 01:21:19;;;;;;;27.52;12.35;;;;;;;-0.49;58.08;99999.28;4940623;29;20020;-96
2024/01/13 01:23:47;;;;;;;26.73;12.77;;;;;;;-0.53;58.14;99978.66;4924953;29;20070;-96
2024/01/13 01:26:13;;;;;;;29.27;13.63;;;;;;;-0.43;58.28;99981.88;4923507;29;20043;-96
2024/01/13 01:28:40;;;;;;;32.35;14.30;;;;;;;-0.36;58.64;99993.34;4926253;29;20050;-96
2024/01/13 01:31:12;;;;;;;24.42;12.20;;;;;;;-0.45;58.37;99982.03;4926313;29;20091;-96
2024/01/13 01:33:38;;;;;;;41.10;16.90;;;;;;;-0.44;58.70;99980.22;4941692;29;20039;-96
2024/01/13 01:36:05;;;;;;;27.92;13.27;;;;;;;-0.45;59.83;99989.97;4942929;29;20032;-95
2024/01/13 01:38:32;;;;;;;30.23;14.48;;;;;;;-0.54;59.16;99972.56;4942215;29;20023;-96
2024/01/13 01:40:58;;;;;;;31.52;14.90;;;;;;;-0.63;60.13;99976.28;4927391;29;20038;-96
2024/01/13 01:43:23;;;;;;;28.52;13.85;;;;;;;-0.81;60.42;99963.38;4928319;29;20032;-96
2024/01/13 01:45:50;;;;;;;30.98;13.40;;;;;;;-0.61;60.01;99985.66;4925280;29;20024;-96
2024/01/13 01:48:17;;;;;;;29.80;13.70;;;;;;;-0.88;59.61;99951.91;4927808;29;20024;-96
2024/01/13 01:50:42;;;;;;;28.92;13.02;;;;;;;-0.68;59.49;99989.22;4925429;29;20078;-95
2024/01/13 01:53:12;;;;;;;33.15;14.88;;;;;;;-0.59;60.27;100000.56;4926099;29;20028;-96
2024/01/13 01:55:38;;;;;;;27.92;14.90;;;;;;;-0.84;60.71;99961.13;4910193;29;20035;-96
2024/01/13 01:58:03;;;;;;;37.72;15.18;;;;;;;-0.75;59.97;99975.88;4926076;29;20182;-96
2024/01/13 02:00:31;;;;;;;25.58;13.35;;;;;;;-0.85;60.65;99986.75;4910015;29;20064;-96
2024/01/13 02:02:58;;;;;;;26.27;13.55;;;;;;;-0.83;60.00;99989.19;4943136;29;20107;-95
2024/01/13 02:05:24;;;;;;;25.25;12.52;;;;;;;-0.89;59.77;99974.06;4924788;29;20028;-96
2024/01/13 02:07:53;;;;;;;29.80;12.90;;;;;;;-0.79;59.51;99994.94;4927359;29;20403;-96
2024/01/13 02:10:19;;;;;;;27.83;12.48;;;;;;;-0.55;58.14;100012.41;4926233;29;20047;-96
2024/01/13 02:12:44;;;;;;;26.75;13.23;;;;;;;-0.60;58.03;99983.88;4910881;29;20066;-96
2024/01/13 02:15:11;;;;;;;26.15;12.13;;;;;;;-0.66;58.14;100003.91;4911630;29;20393;-96
2024/01/13 02:17:40;;;;;;;27.27;12.18;;;;;;;-0.71;58.08;100005.44;4942112;29;20094;-96
2024/01/13 02:20:10;;;;;;;25.38;12.35;;;;;;;-0.73;57.23;99996.88;4909553;29;20019;-95
2024/01/13 02:22:35;;;;;;;26.35;12.55;;;;;;;-0.61;57.38;99998.88;4926190;29;20110;-96
2024/01/13 02:25:03;;;;;;;24.30;12.25;;;;;;;-0.66;57.00;99976.66;4924806;29;20028;-96
2024/01/13 02:27:30;;;;;;;24.35;11.32;;;;;;;-0.66;57.20;99985.41;4907355;29;20035;-96
2024/01/13 02:29:56;;;;;;;24.15;11.95;;;;;;;-0.61;56.64;99993.59;4923299;29;20495;-95
2024/01/13 02:32:22;;;;;;;21.80;11.88;;;;;;;-0.46;56.35;100006.03;4920718;29;20059;-96
2024/01/13 02:34:48;;;;;;;25.38;11.73;;;;;;;-0.46;56.65;99992.81;4922406;29;20039;-96
2024/01/13 02:37:13;;;;;;;20.30;10.68;;;;;;;-0.42;56.30;99994.09;4937869;29;20028;-96
2024/01/13 02:39:40;;;;;;;25.13;11.88;;;;;;;-0.35;55.99;99996.81;4922303;29;20039;-96
2024/01/13 02:42:06;;;;;;;25.95;11.27;;;;;;;-0.42;55.60;99981.66;4922128;29;20028;-95
2024/01/13 02:44:34;;;;;;;24.85;11.57;;;;;;;-0.67;56.27;99975.81;4921898;29;20133;-95
2024/01/13 02:46:59;;;;;;;22.23;11.43;;;;;;;-0.61;57.15;99976.91;4906507;29;20494;-96
2024/01/13 02:49:25;;;;;;;21.58;11.00;;;;;;;-0.64;56.85;99974.66;4921438;29;20034;-96
2024/01/13 02:51:51;;;;;;;24.55;11.18;;;;;;;-0.66;56.09;99956.31;4905356;29;20032;-96
2024/01/13 02:54:18;;;;;;;26.95;11.63;;;;;;;-0.62;56.18;99962.88;4920391;29;20103;-96
2024/01/13 02:56:44;;;;;;;24.05;11.38;;;;;;;-0.47;55.95;99975.31;4904324;29;20020;-96
2024/01/13 02:59:09;;;;;;;25.92;12.55;;;;;;;-0.51;55.67;99961.59;4920186;29;20039;-95
2024/01/13 03:01:35;;;;;;;24.98;11.30;;;;;;;-0.51;55.84;99955.50;4904836;29;20080;-96
2024/01/13 03:04:02;;;;;;;25.15;11.80;;;;;;;-0.74;55.97;99940.53;4919039;29;20497;-96
2024/01/13 03:06:28;;;;;;;33.55;13.00;;;;;;;-0.58;56.36;99973.94;4919731;29;20111;-96
2024/01/13 03:08:54;;;;;;;24.35;11.15;;;;;;;-0.74;56.11;99950.28;4905085;29;20024;-96
2024/01/13 03:11:19;;;;;;;25.58;11.05;;;;;;;-0.76;56.71;99954.94;4920387;29;20052;-96
2024/01/13 03:13:45;;;;;;;23.63;10.85;;;;;;;-0.71;56.07;99952.56;4921395;29;20031;-96
2024/01/13 03:16:11;;;;;;;25.33;11.82;;;;;;;-0.73;55.67;99954.56;4921078;29;20032;-95
2024/01/13 03:18:37;;;;;;;22.98;11.02;;;;;;;-0.69;57.06;99959.31;4921042;29;20474;-96
2024/01/13 03:21:04;;;;;;;29.08;12.15;;;;;;;-0.65;56.06;99952.66;4904895;29;20403;-96
2024/01/13 03:23:30;;;;;;;26.60;11.63;;;;;;;-0.65;56.00;99963.22;4920203;29;20060;-96
2024/01/13 03:25:56;;;;;;;23.52;10.93;;;;;;;-0.66;56.26;99955.50;4919798;29;20032;-96
2024/01/13 03:28:23;;;;;;;22.17;10.93;;;;;;;-0.61;55.62;99967.16;4934655;29;20052;-96
2024/01/13 03:31:15;;;;;;;24.77;12.05;;;;;;;-0.72;55.98;99946.47;4920548;29;20056;-96
2024/01/13 03:33:43;;;;;;;;;;;;;;;-0.59;55.32;99984.69;4885826;29;20135;-96
2024/01/13 03:36:09;;;;;;;20.15;10.52;;;;;;;-0.91;56.32;99957.56;4901644;29;19923;-96
2024/01/13 03:38:35;;;;;;;25.13;10.63;;;;;;;-0.76;56.25;99957.59;4869221;29;20052;-96
2024/01/13 03:41:01;;;;;;;20.05;11.05;;;;;;;-0.78;56.13;99947.19;4856136;29;20032;-92
2024/01/13 03:43:27;;;;;;;28.33;11.23;;;;;;;-0.70;56.78;99983.31;4887079;29;20111;-96
2024/01/13 03:45:52;;;;;;;23.23;10.77;;;;;;;-0.68;56.29;99978.66;4870439;29;20032;-96
2024/01/13 03:48:19;;;;;;;22.92;10.90;;;;;;;-0.74;56.57;99964.31;4870339;29;20332;-95
2024/01/13 03:50:46;;;;;;;24.42;10.90;;;;;;;-0.62;55.15;99972.66;4854234;29;20016;-95
2024/01/13 03:53:16;;;;;;;27.45;10.68;;;;;;;-0.64;55.39;99945.56;4869909;29;20040;-96
2024/01/13 03:55:41;;;;;;;24.33;11.05;;;;;;;-0.61;55.44;99951.28;4870119;29;20540;-96
2024/01/13 03:58:08;;;;;;;21.48;11.60;;;;;;;-0.69;54.99;99940.78;4852849;29;20119;-96
2024/01/13 04:00:34;;;;;;;27.48;11.35;;;;;;;-0.57;55.13;99953.59;4885006;29;20123;-95
2024/01/13 04:03:01;;;;;;;23.42;10.68;;;;;;;-0.64;55.34;99941.09;4853732;29;20495;-96
2024/01/13 04:05:27;;;;;;;21.48;11.73;;;;;;;-0.70;55.50;99935.72;4901090;29;20036;-96
2024/01/13 04:07:53;;;;;;;28.02;10.95;;;;;;;-0.78;56.15;99955.13;4919739;29;20387;-96
2024/01/13 04:10:18;;;;;;;27.25;11.80;;;;;;;-0.71;55.56;99958.66;4934404;29;20032;-95
2024/01/13 04:12:45;;;;;;;21.77;10.32;;;;;;;-0.68;55.19;99968.91;4920308;29;20028;-96
2024/01/13 04:15:11;;;;;;;25.10;11.02;;;;;;;-0.59;54.82;99974.91;4919913;29;20023;-94
2024/01/13 04:17:37;;;;;;;21.30;11.15;;;;;;;-0.68;54.98;99952.22;4918258;29;20036;-95
2024/01/13 04:20:04;;;;;;;28.33;11.65;;;;;;;-0.75;54.86;99965.31;4906066;29;20028;-95
2024/01/13 04:22:30;;;;;;;23.95;10.65;;;;;;;-0.80;54.64;99941.25;4908536;29;20051;-96
2024/01/13 04:24:57;;;;;;;21.77;10.57;;;;;;;-0.76;55.32;99952.28;4924259;29;20414;-96
2024/01/13 04:27:24;;;;;;;25.13;10.35;;;;;;;-0.81;54.62;99950.16;4939599;29;20048;-96
2024/01/13 04:29:50;;;;;;;23.02;12.45;;;;;;;-0.86;55.63;99952.53;4923169;29;20024;-96
2024/01/13 04:32:15;;;;;;;22.30;11.57;;;;;;;-0.78;55.76;99957.75;4924067;29;20032;-96
2024/01/13 04:34:41;;;;;;;20.00;9.77;;;;;;;-1.01;56.18;99936.66;4921351;29;20048;-95
2024/01/13 04:37:07;;;;;;;24.90;11.10;;;;;;;-1.09;55.27;99932.25;4922369;29;20574;-95
2024/01/13 04:39:33;;;;;;;31.25;12.82;;;;;;;-1.08;55.55;99939.19;4907784;29;20052;-96
2024/01/13 04:41:59;;;;;;;24.88;11.63;;;;;;;-1.19;56.40;99936.16;4939319;29;20125;-96
2024/01/13 04:44:24;;;;;;;22.40;11.38;;;;;;;-1.04;56.05;99947.56;4909006;29;20063;-96
2024/01/13 04:46:50;;;;;;;22.92;11.27;;;;;;;-0.98;54.90;99949.50;4923650;29;20028;-95
2024/01/13 04:49:16;;;;;;;32.17;11.93;;;;;;;-1.12;54.82;99937.91;4938746;29;20087;-95
2024/01/13 04:51:41;;;;;;;24.58;11.07;;;;;;;-0.90;54.39;99960.00;4908341;29;20067;-96
2024/01/13 04:54:08;;;;;;;23.00;10.30;;;;;;;-1.16;54.04;99923.41;4921698;29;20016;-95
2024/01/13 04:56:33;;;;;;;23.63;10.82;;;;;;;-0.99;54.45;99936.50;4922522;29;20024;-95
2024/01/13 04:59:00;;;;;;;21.05;11.25;;;;;;;-0.94;54.48;99934.94;4922362;29;20178;-95
2024/01/13 05:01:26;;;;;;;20.13;10.25;;;;;;;-0.99;53.93;99952.34;4921290;29;20032;-96
2024/01/13 05:03:52;;;;;;;21.40;10.07;;;;;;;-1.11;53.98;99931.63;4938749;29;20036;-95
2024/01/13 05:06:17;;;;;;;24.13;10.77;;;;;;;-1.16;53.54;99927.84;4906407;29;20036;-96
2024/01/13 05:08:43;;;;;;;24.90;11.18;;;;;;;-1.13;54.71;99932.81;4922006;29;20471;-96
2024/01/13 05:11:10;;;;;;;29.27;11.07;;;;;;;-1.07;54.53;99926.81;4922751;29;20020;-95
2024/01/13 05:13:36;;;;;;;26.73;11.65;;;;;;;-1.07;54.31;99932.09;4923409;29;20024;-95
2024/01/13 05:16:03;;;;;;;27.10;12.10;;;;;;;-0.88;54.69;99936.03;4907529;29;20012;-95
2024/01/13 05:18:28;;;;;;;23.10;9.98;;;;;;;-0.95;53.41;99924.56;4922004;29;20038;-96
2024/01/13 05:20:55;;;;;;;21.90;11.43;;;;;;;-0.82;54.28;99945.91;4906536;29;20119;-94
2024/01/13 05:23:21;;;;;;;20.00;9.85;;;;;;;-0.91;54.22;99923.19;4924242;29;20023;-96
2024/01/13 05:25:47;;;;;;;20.42;10.80;;;;;;;-1.04;54.17;99903.50;4921347;29;20413;-95
2024/01/13 05:28:12;;;;;;;22.73;10.32;;;;;;;-1.12;54.25;99908.00;4924099;29;20051;-94
2024/01/13 05:30:38;;;;;;;26.58;10.98;;;;;;;-0.99;54.36;99907.41;4909439;29;20036;-96
2024/01/13 05:33:04;;;;;;;21.83;9.95;;;;;;;-0.91;54.17;99920.56;4909259;29;20131;-95
2024/01/13 05:35:30;;;;;;;25.60;11.77;;;;;;;-1.00;55.55;99913.69;4926443;29;20383;-95
2024/01/13 05:37:56;;;;;;;27.55;12.57;;;;;;;-0.86;55.61;99934.84;4939563;29;20036;-95
2024/01/13 05:40:21;;;;;;;29.25;12.57;;;;;;;-1.00;55.49;99905.75;4924565;29;20086;-95
2024/01/13 05:42:48;;;;;;;27.92;13.23;;;;;;;-0.96;55.42;99910.50;4909953;29;20058;-95
2024/01/13 05:45:13;;;;;;;28.90;13.00;;;;;;;-0.89;55.07;99916.72;4940969;29;20107;-95
2024/01/13 05:47:39;;;;;;;23.80;12.68;;;;;;;-0.84;55.05;99917.00;4908874;29;20083;-94
2024/01/13 05:50:09;;;;;;;28.05;13.07;;;;;;;-0.96;54.79;99904.41;4909204;29;20482;-95
2024/01/13 05:52:38;;;;;;;22.85;11.55;;;;;;;-0.88;54.57;99918.34;4925355;29;20027;-94
2024/01/13 05:55:04;;;;;;;26.67;12.00;;;;;;;-0.88;54.52;99925.47;4925658;29;20032;-94
2024/01/13 05:57:30;;;;;;;22.50;11.20;;;;;;;-1.02;54.86;99917.34;4909633;29;20094;-95
2024/01/13 05:59:58;;;;;;;145.48;84.97;;;;;;;-1.09;54.29;99928.81;4909020;29;20024;-95
2024/01/13 06:02:24;;;;;;;34.83;18.08;;;;;;;-1.24;54.49;99907.63;4924412;29;20027;-95
2024/01/13 06:04:51;;;;;;;23.92;11.70;;;;;;;-1.19;54.98;99944.09;4909362;29;20024;-94
2024/01/13 06:07:16;;;;;;;24.85;11.43;;;;;;;-1.28;54.98;99935.41;4926350;29;20035;-96
2024/01/13 06:09:42;;;;;;;25.33;10.75;;;;;;;-1.27;55.18;99934.38;4924149;29;20024;-95
2024/01/13 06:12:09;;;;;;;30.95;11.75;;;;;;;-1.36;54.18;99922.25;4908583;29;20027;-95
2024/01/13 06:14:35;;;;;;;26.77;10.82;;;;;;;-1.39;55.00;99925.25;4909378;29;20054;-95
2024/01/13 06:17:01;;;;;;;24.33;9.43;;;;;;;-1.32;54.78;99932.28;4924708;29;20023;-95
2024/01/13 06:19:26;;;;;;;23.00;11.25;;;;;;;-1.44;54.80;99934.50;4908199;29;20401;-95
2024/01/13 06:21:52;;;;;;;32.17;11.75;;;;;;;-1.45;55.05;99934.72;4924439;29;20119;-95
2024/01/13 06:24:18;;;;;;;22.15;10.77;;;;;;;-1.57;56.15;99920.28;4939132;29;20072;-96
2024/01/13 06:26:45;;;;;;;23.95;11.40;;;;;;;-1.53;55.84;99929.50;4923626;29;20055;-94
2024/01/13 06:29:11;;;;;;;23.10;10.90;;;;;;;-1.49;56.37;99938.69;4923280;29;20051;-95
2024/01/13 06:31:36;;;;;;;25.27;11.48;;;;;;;-1.67;55.80;99912.56;4924246;29;20039;-96
2024/01/13 06:34:02;;;;;;;27.88;12.75;;;;;;;-1.53;56.24;99962.00;4923242;29;20490;-95
2024/01/13 06:36:29;;;;;;;20.42;10.63;;;;;;;-1.59;55.84;99935.47;4923721;29;20502;-94
2024/01/13 06:38:56;;;;;;;22.98;10.73;;;;;;;-1.42;55.46;99955.47;4907760;29;20024;-95
2024/01/13 06:41:23;;;;;;;26.85;11.57;;;;;;;-1.52;56.28;99950.41;4922960;29;20036;-94
2024/01/13 06:43:49;;;;;;;24.10;10.80;;;;;;;-1.46;56.10;99947.06;4908614;29;20031;-95
2024/01/13 06:46:15;;;;;;;26.13;12.45;;;;;;;-1.45;55.83;99945.28;4924072;29;20401;-95
2024/01/13 06:48:40;;;;;;;26.52;12.65;;;;;;;-1.34;56.07;99946.69;4909015;29;20034;-95
2024/01/13 06:51:06;;;;;;;26.10;11.88;;;;;;;-1.24;54.74;99957.81;4923473;29;20047;-95
2024/01/13 06:53:31;;;;;;;24.50;10.88;;;;;;;-1.24;54.91;99958.66;4923642;29;20020;-96
2024/01/13 06:55:57;;;;;;;25.02;10.85;;;;;;;-1.34;54.87;99950.13;4907705;29;20046;-95
2024/01/13 06:58:23;;;;;;;25.38;11.57;;;;;;;-1.21;54.51;99949.53;4907130;29;20020;-93
2024/01/13 07:00:48;;;;;;;26.42;11.10;;;;;;;-1.21;54.40;99962.75;4907104;29;20051;-94
2024/01/13 07:03:14;;;;;;;25.77;11.43;;;;;;;-1.37;54.48;99934.66;4907333;29;20032;-93
2024/01/13 07:05:40;;;;;;;31.45;12.55;;;;;;;-1.20;54.32;99966.19;4923992;29;20035;-95
2024/01/13 07:08:08;;;;;;;27.02;12.32;;;;;;;-1.34;55.10;99936.13;4922347;29;20028;-95
2024/01/13 07:10:34;;;;;;;31.65;12.57;;;;;;;-1.28;54.94;99945.97;4922210;29;20179;-94
2024/01/13 07:13:00;;;;;;;25.80;11.35;;;;;;;-1.13;55.26;99961.88;4905977;29;20034;-95
2024/01/13 07:15:29;;;;;;;27.45;12.27;;;;;;;-1.10;54.48;99961.50;4922982;29;20027;-95
2024/01/13 07:17:56;;;;;;;26.13;11.20;;;;;;;-1.21;54.18;99946.88;4923340;29;20032;-95
2024/01/13 07:20:22;;;;;;;24.70;11.80;;;;;;;-1.22;55.75;99943.44;4906432;29;20028;-95
2024/01/13 07:22:48;;;;;;;29.48;12.02;;;;;;;-0.95;54.84;99980.06;4921236;29;20406;-95
2024/01/13 07:25:16;;;;;;;29.33;12.43;;;;;;;-0.92;55.45;99977.03;4921627;29;20422;-94
2024/01/13 07:32:07;;;;;;;;;;;;;;;;;;;;;
2024/01/13 07:38:00;;;;;;;24.27;11.02;;;;;;;-0.61;53.67;99966.34;4810013;29;20114;-96
2024/01/13 07:40:26;;;;;;;27.80;12.85;;;;;;;-0.53;54.37;99994.53;4835683;29;20143;-93
2024/01/13 07:42:52;;;;;;;25.77;12.05;;;;;;;-0.59;53.12;99955.59;4842896;29;20040;-93
2024/01/13 07:45:20;;;;;;;30.75;13.50;;;;;;;-0.48;53.92;99957.78;4850337;29;20147;-96
2024/01/13 07:47:47;;;;;;;25.38;11.90;;;;;;;-0.22;53.02;99971.38;4850504;29;20037;-93
2024/01/13 07:50:12;;;;;;;38.53;13.48;;;;;;;-0.16;52.97;99961.06;4880830;29;20045;-94
2024/01/13 07:55:13;;;;;;;24.30;12.55;;;;;;;-0.14;53.24;99945.84;5648029;23;20066;-94
2024/01/13 07:57:41;;;;;;;25.00;11.60;;;;;;;-0.15;52.71;99941.53;4923518;29;20043;-94
2024/01/13 08:00:07;;;;;;;23.05;10.45;;;;;;;-0.03;52.50;99955.94;4924795;29;20050;-95
2024/01/13 08:02:33;;;;;;;25.70;12.57;;;;;;;-0.06;53.30;99945.72;4908649;29;20035;-95
2024/01/13 08:04:58;;;;;;;27.80;12.20;;;;;;;0.05;52.89;99949.72;4923575;29;20024;-94
2024/01/13 08:07:25;;;;;;;31.98;13.40;;;;;;;0.17;52.79;99943.75;4926182;29;20413;-94
2024/01/13 08:09:51;;;;;;;35.00;13.15;;;;;;;0.24;52.95;99945.66;4925521;29;20126;-95
2024/01/13 08:12:17;;;;;;;25.58;12.48;;;;;;;0.09;52.52;99940.41;4911320;29;20530;-95
2024/01/13 08:14:43;;;;;;;27.08;12.73;;;;;;;0.21;53.16;99946.84;4927327;29;20022;-94
2024/01/13 08:17:11;;;;;;;29.33;12.82;;;;;;;0.44;52.07;99948.53;4927411;29;20042;-94
2024/01/13 08:19:37;;;;;;;27.70;13.82;;;;;;;0.52;52.19;99964.28;4912426;29;20093;-94
2024/01/13 08:22:04;;;;;;;24.42;12.10;;;;;;;0.43;51.76;99931.78;4927375;29;20043;-94
2024/01/13 08:24:30;;;;;;;24.83;11.70;;;;;;;0.75;50.75;99964.13;4910565;29;20078;-95
2024/01/13 08:26:56;;;;;;;30.33;13.18;;;;;;;0.51;51.77;99944.09;4928357;29;20027;-94
2024/01/13 08:29:22;;;;;;;22.25;11.57;;;;;;;0.58;51.80;99937.03;4909183;29;20041;-95
2024/01/13 08:31:49;;;;;;;22.00;11.85;;;;;;;0.58;51.40;99958.22;4909442;29;20027;-95
2024/01/13 08:34:15;;;;;;;36.58;13.77;;;;;;;0.54;52.39;99936.59;4927636;29;20054;-96
2024/01/13 08:36:41;;;;;;;28.17;13.40;;;;;;;0.65;51.96;99953.00;4910033;29;20067;-96
2024/01/13 08:39:06;;;;;;;22.75;12.05;;;;;;;0.65;51.47;99937.13;4910605;29;20027;-96
2024/01/13 08:41:33;;;;;;;22.55;11.73;;;;;;;0.73;50.72;99942.28;4934521;29;20035;-96
2024/01/13 08:44:10;;;;;;;20.90;10.93;;;;;;;0.67;51.05;99932.44;4918586;29;20031;-96
2024/01/13 08:46:41;;;;;;;26.67;11.98;;;;;;;0.73;51.52;99942.28;4933862;29;20027;-95
2024/01/13 08:49:07;;;;;;;26.23;13.57;;;;;;;0.69;51.22;99946.31;4916100;29;20048;-96
2024/01/13 08:51:34;;;;;;;25.67;11.70;;;;;;;0.73;50.83;99943.09;4926958;29;20035;-95
2024/01/13 08:54:00;;;;;;;23.23;11.63;;;;;;;0.60;50.41;99948.25;4913487;29;20166;-96
2024/01/13 08:56:34;;;;;;;21.83;11.02;;;;;;;0.54;50.63;99949.00;4916980;29;20056;-96
2024/01/13 08:59:04;;;;;;;27.27;13.80;;;;;;;0.41;52.03;99955.00;4931950;29;20044;-96
2024/01/13 09:01:30;;;;;;;21.70;11.05;;;;;;;0.49;51.46;99962.03;4895352;29;20111;-95
2024/01/13 09:03:59;;;;;;;20.70;10.77;;;;;;;0.60;51.85;99954.41;4915092;29;20066;-96
2024/01/13 09:10:20;;;;;;;22.48;11.55;;;;;;;0.59;50.60;99912.19;4914093;29;20043;-96
2024/01/13 09:26:12;;;;;;;20.17;11.30;;;;;;;1.21;49.66;99895.53;4958461;28;20047;-95
2024/01/13 09:28:38;;;;;;;22.98;11.00;;;;;;;1.24;50.24;99890.84;4914182;29;20035;-95
2024/01/13 09:31:04;;;;;;;22.55;11.48;;;;;;;1.33;49.61;99895.81;4928807;29;20031;-96
2024/01/13 09:33:29;;;;;;;20.40;9.98;;;;;;;1.12;48.37;99870.19;4914641;29;20027;-96
2024/01/13 09:35:55;;;;;;;23.65;10.90;;;;;;;1.15;49.38;99880.41;4928748;29;20039;-96
2024/01/13 09:38:21;;;;;;;22.77;10.15;;;;;;;1.15;48.53;99882.25;4916810;29;20027;-96
2024/01/13 09:40:47;;;;;;;21.23;11.50;;;;;;;1.27;48.85;99893.13;4915438;29;20461;-96
2024/01/13 09:43:31;;;;;;;20.70;10.93;;;;;;;1.00;48.81;99883.16;4913963;29;20031;-95
2024/01/13 09:45:56;;;;;;;21.67;9.60;;;;;;;1.06;48.36;99872.78;4915096;29;20143;-93
2024/01/13 09:48:22;;;;;;;19.60;10.90;;;;;;;0.93;48.99;99866.38;4929018;29;20485;-96
2024/01/13 09:50:52;;;;;;;19.75;9.57;;;;;;;1.03;49.29;99868.69;4929180;29;20035;-96
2024/01/13 09:53:25;;;;;;;21.20;10.48;;;;;;;0.93;49.12;99869.03;4928367;29;20031;-94
2024/01/13 09:55:52;;;;;;;22.45;10.25;;;;;;;0.92;49.15;99871.88;4944475;29;20031;-95
2024/01/13 09:58:17;;;;;;;21.55;9.95;;;;;;;0.92;49.30;99858.63;4912010;29;20509;-95
2024/01/13 10:04:55;;;;;;;26.63;12.88;;;;;;;0.97;49.29;99872.94;4922008;29;20045;-96
2024/01/13 10:07:21;;;;;;;23.63;10.48;;;;;;;1.10;49.82;99874.03;4945764;29;20058;-95
2024/01/13 10:09:47;;;;;;;22.67;9.77;;;;;;;0.99;49.63;99849.69;4928257;29;20031;-94
2024/01/13 10:12:16;;;;;;;22.80;11.30;;;;;;;0.94;49.56;99846.00;4927947;29;20103;-96
2024/01/13 10:14:45;;;;;;;20.83;10.63;;;;;;;1.10;49.95;99845.69;4918131;29;20035;-96
2024/01/13 10:17:11;;;;;;;23.10;11.90;;;;;;;1.10;49.18;99837.75;4928481;29;20094;-96
2024/01/13 10:19:40;;;;;;;22.15;10.77;;;;;;;1.26;48.77;99849.03;4913370;29;20073;-96
2024/01/13 10:22:08;;;;;;;22.52;12.15;;;;;;;1.14;49.15;99828.38;4914862;29;20473;-96
2024/01/13 10:24:34;;;;;;;17.67;10.15;;;;;;;1.22;49.23;99853.91;4909231;29;20087;-96
2024/01/13 10:27:14;;;;;;;17.27;9.45;;;;;;;1.01;49.00;99830.94;4911303;29;20482;-96
2024/01/13 10:29:44;;;;;;;17.00;9.90;;;;;;;1.00;48.86;99829.31;4928406;29;20035;-96
2024/01/13 10:32:12;;;;;;;21.90;11.27;;;;;;;0.86;49.43;99827.59;4913021;29;20027;-96
2024/01/13 10:35:25;;;;;;;27.40;11.45;;;;;;;0.93;48.99;99823.13;4930799;29;20028;-96
2024/01/13 10:38:10;;;;;;;18.45;10.02;;;;;;;0.92;49.56;99817.03;4946554;29;20134;-95
2024/01/13 10:40:49;;;;;;;18.70;10.98;;;;;;;0.76;49.60;99806.72;4928249;29;20067;-94
2024/01/13 10:43:24;;;;;;;24.58;10.52;;;;;;;0.97;49.12;99819.91;4930367;29;20047;-96
2024/01/13 10:45:52;;;;;;;16.95;8.95;;;;;;;0.90;48.99;99807.63;4917181;29;20035;-96
2024/01/13 10:48:49;;;;;;;18.25;10.35;;;;;;;1.01;48.94;99830.94;4914099;29;20038;-96
2024/01/13 10:51:52;;;;;;;;;;;;;;;;;;;;;
2024/01/13 10:54:23;;;;;;;16.27;9.85;;;;;;;1.02;48.71;99808.72;4930904;29;20119;-94
2024/01/13 10:56:51;;;;;;;17.30;10.10;;;;;;;1.03;49.19;99822.81;4928123;29;20039;-96
2024/01/13 10:59:28;;;;;;;18.60;10.27;;;;;;;1.00;49.37;99808.91;4914296;29;20032;-96
2024/01/13 11:02:41;;;;;;;18.52;9.27;;;;;;;0.85;48.28;99794.97;4921418;29;20079;-96
2024/01/13 11:06:02;;;;;;;14.95;8.25;;;;;;;0.76;48.93;99786.34;4916292;28;20028;-96
2024/01/13 11:08:36;;;;;;;21.98;10.38;;;;;;;1.09;49.10;99830.78;4953189;29;20075;-96
2024/01/13 11:11:41;;;;;;;;;;;;;;;;;;;;;
2024/01/13 11:15:09;;;;;;;15.90;8.35;;;;;;;1.19;49.36;99811.88;4936468;29;20075;-96
2024/01/13 11:18:07;;;;;;;19.13;9.13;;;;;;;1.18;48.73;99783.72;4886520;29;20073;-95
2024/01/13 11:21:11;;;;;;;15.18;9.23;;;;;;;1.42;47.76;99806.28;4880713;29;20153;-96
2024/01/13 11:31:26;;;;;;;15.75;7.97;;;;;;;1.38;47.57;99773.19;4895691;29;20044;-96
2024/01/13 11:34:44;;;;;;;15.32;7.53;;;;;;;1.17;47.50;99779.44;4884901;29;20049;-96
2024/01/13 11:37:26;;;;;;;15.70;8.18;;;;;;;1.47;48.05;99810.97;4884174;29;20049;-95
2024/01/13 11:40:03;;;;;;;17.45;8.93;;;;;;;1.45;47.74;99781.97;4855511;29;20033;-94
2024/01/13 11:42:29;;;;;;;14.00;8.98;;;;;;;1.45;47.66;99776.66;4917726;29;20070;-93
2024/01/13 11:44:54;;;;;;;15.98;8.50;;;;;;;1.44;47.25;99768.94;4927652;29;20516;-95
2024/01/13 11:47:27;;;;;;;14.38;7.95;;;;;;;1.61;48.01;99802.03;4928059;29;20473;-94
2024/01/13 11:49:53;;;;;;;17.58;8.98;;;;;;;1.47;48.04;99760.56;4927727;29;20151;-94
2024/01/13 11:52:31;;;;;;;17.58;9.45;;;;;;;1.50;47.83;99779.56;4942817;29;20027;-94
2024/01/13 11:54:57;;;;;;;16.45;9.52;;;;;;;1.46;49.11;99762.41;4928693;29;20485;-95
2024/01/13 11:57:23;;;;;;;13.05;7.97;;;;;;;1.42;48.40;99767.28;4942506;29;20042;-96
2024/01/13 11:59:49;;;;;;;14.98;8.60;;;;;;;1.34;47.50;99748.06;4926998;29;20027;-95
2024/01/13 12:02:14;;;;;;;14.23;7.57;;;;;;;1.43;46.64;99757.47;4926554;29;20106;-95
2024/01/13 12:04:42;;;;;;;14.85;8.30;;;;;;;1.44;46.39;99742.41;4926344;29;20038;-94
2024/01/13 12:07:10;;;;;;;19.23;9.57;;;;;;;1.52;46.36;99758.13;4941642;29;20035;-95
2024/01/13 12:09:36;;;;;;;15.95;8.85;;;;;;;1.51;47.06;99753.84;4943082;29;20085;-94